sensor_id;sensor_type;location;lat;lon;timestamp;pressure;altitude;pressure_sealevel;temperature;humidity
29941;BME280;16801;53.562;10.038;2024-03-08T00:02:26;102412.44;;;3.39;100.00
29941;BME280;16801;53.562;10.038;2024-03-08T00:05:48;102409.91;;;3.34;100.00
29941;BME280;16801;53.562;10.038;2024-03-08T00:09:09;102408.03;;;3.38;100.00
29941;BME280;16801;53.562;10.038;2024-03-08T00:12:31;102400.19;;;3.33;100.00
29941;BME280;16801;53.562;10.038;2024-03-08T00:15:52;102397.97;;;3.21;100.00
29941;BME280;16801;53.562;10.038;2024-03-08T00:19:14;102391.53;;;3.27;100.00
29941;BME280;16801;53.562;10.038;2024-03-08T00:22:35;102391.81;;;3.19;100.00
29941;BME280;16801;53.562;10.038;2024-03-08T00:25:56;102393.41;;;3.24;100.00
29941;BME280;16801;53.562;10.038;2024-03-08T00:29:17;102399.31;;;3.33;100.00
29941;BME280;16801;53.562;10.038;2024-03-08T00:32:38;102397.16;;;3.19;100.00
29941;BME280;16801;53.562;10.038;2024-03-08T00:36:00;102397.53;;;3.07;100.00
29941;BME280;16801;53.562;10.038;2024-03-08T00:39:21;102399.38;;;3.05;100.00
29941;BME280;16801;53.562;10.038;2024-03-08T00:42:45;102389.41;;;3.11;100.00
29941;BME280;16801;53.562;10.038;2024-03-08T00:46:08;102392.56;;;2.96;100.00
29941;BME280;16801;53.562;10.038;2024-03-08T00:49:29;102384.56;;;2.96;100.00
29941;BME280;16801;53.562;10.038;2024-03-08T00:52:54;102393.28;;;3.01;100.00
29941;BME280;16801;53.562;10.038;2024-03-08T00:56:16;102401.34;;;3.00;100.00
29941;BME280;16801;53.562;10.038;2024-03-08T00:59:38;102388.13;;;2.97;100.00
29941;BME280;16801;53.562;10.038;2024-03-08T01:02:59;102387.22;;;2.96;100.00
29941;BME280;16801;53.562;10.038;2024-03-08T01:06:19;102385.25;;;3.03;100.00
29941;BME280;16801;53.562;10.038;2024-03-08T01:09:44;102369.69;;;2.91;100.00
29941;BME280;16801;53.562;10.038;2024-03-08T01:13:07;102374.25;;;2.87;100.00
29941;BME280;16801;53.562;10.038;2024-03-08T01:16:29;102368.91;;;2.87;100.00
29941;BME280;16801;53.562;10.038;2024-03-08T01:19:53;102360.31;;;2.79;100.00
29941;BME280;16801;53.562;10.038;2024-03-08T01:23:14;102360.34;;;2.78;100.00
29941;BME280;16801;53.562;10.038;2024-03-08T01:26:36;102355.75;;;2.83;100.00
29941;BME280;16801;53.562;10.038;2024-03-08T01:30:00;102352.34;;;2.78;100.00
29941;BME280;16801;53.562;10.038;2024-03-08T01:33:24;102335.78;;;2.70;100.00
29941;BME280;16801;53.562;10.038;2024-03-08T01:36:45;102338.22;;;2.76;100.00
29941;BME280;16801;53.562;10.038;2024-03-08T01:40:07;102339.91;;;2.78;100.00
29941;BME280;16801;53.562;10.038;2024-03-08T01:43:30;102326.81;;;2.72;100.00
29941;BME280;16801;53.562;10.038;2024-03-08T01:46:51;102323.94;;;2.52;100.00
29941;BME280;16801;53.562;10.038;2024-03-08T01:50:14;102314.88;;;2.58;100.00
29941;BME280;16801;53.562;10.038;2024-03-08T01:53:35;102303.38;;;2.57;100.00
29941;BME280;16801;53.562;10.038;2024-03-08T01:56:57;102307.66;;;2.61;100.00
29941;BME280;16801;53.562;10.038;2024-03-08T02:00:23;102300.66;;;2.59;100.00
29941;BME280;16801;53.562;10.038;2024-03-08T02:03:45;102297.00;;;2.61;100.00
29941;BME280;16801;53.562;10.038;2024-03-08T02:07:06;102303.22;;;2.62;100.00
29941;BME280;16801;53.562;10.038;2024-03-08T02:10:28;102304.25;;;2.58;100.00
29941;BME280;16801;53.562;10.038;2024-03-08T02:13:49;102300.03;;;2.51;100.00
29941;BME280;16801;53.562;10.038;2024-03-08T02:17:11;102305.34;;;2.51;100.00
29941;BME280;16801;53.562;10.038;2024-03-08T02:20:33;102299.94;;;2.54;100.00
29941;BME280;16801;53.562;10.038;2024-03-08T02:23:55;102290.19;;;2.53;100.00
29941;BME280;16801;53.562;10.038;2024-03-08T02:27:23;102291.06;;;2.53;100.00
29941;BME280;16801;53.562;10.038;2024-03-08T02:30:44;102293.38;;;2.37;100.00
29941;BME280;16801;53.562;10.038;2024-03-08T02:34:06;102294.41;;;2.33;100.00
29941;BME280;16801;53.562;10.038;2024-03-08T02:37:29;102294.34;;;2.35;100.00
29941;BME280;16801;53.562;10.038;2024-03-08T02:40:51;102295.22;;;2.35;100.00
29941;BME280;16801;53.562;10.038;2024-03-08T02:44:12;102291.78;;;2.32;100.00
29941;BME280;16801;53.562;10.038;2024-03-08T02:47:34;102288.34;;;2.28;100.00
29941;BME280;16801;53.562;10.038;2024-03-08T02:50:55;102276.63;;;2.34;100.00
29941;BME280;16801;53.562;10.038;2024-03-08T02:54:17;102277.56;;;2.33;100.00
29941;BME280;16801;53.562;10.038;2024-03-08T02:57:38;102288.22;;;2.33;100.00
29941;BME280;16801;53.562;10.038;2024-03-08T03:00:59;102276.84;;;2.28;100.00
29941;BME280;16801;53.562;10.038;2024-03-08T03:04:20;102272.66;;;2.21;100.00
29941;BME280;16801;53.562;10.038;2024-03-08T03:07:41;102268.03;;;2.26;100.00
29941;BME280;16801;53.562;10.038;2024-03-08T03:11:03;102267.94;;;2.29;100.00
29941;BME280;16801;53.562;10.038;2024-03-08T03:14:24;102261.19;;;2.19;100.00
29941;BME280;16801;53.562;10.038;2024-03-08T03:17:48;102265.63;;;2.18;100.00
29941;BME280;16801;53.562;10.038;2024-03-08T03:21:10;102265.81;;;2.12;100.00
29941;BME280;16801;53.562;10.038;2024-03-08T03:24:32;102259.56;;;2.13;100.00
29941;BME280;16801;53.562;10.038;2024-03-08T03:27:55;102269.59;;;2.05;100.00
29941;BME280;16801;53.562;10.038;2024-03-08T03:31:16;102268.03;;;1.98;100.00
29941;BME280;16801;53.562;10.038;2024-03-08T03:34:38;102273.47;;;1.95;100.00
29941;BME280;16801;53.562;10.038;2024-03-08T03:37:59;102268.09;;;1.97;100.00
29941;BME280;16801;53.562;10.038;2024-03-08T03:41:26;102265.34;;;2.00;100.00
29941;BME280;16801;53.562;10.038;2024-03-08T03:44:48;102262.63;;;2.01;100.00
29941;BME280;16801;53.562;10.038;2024-03-08T03:48:09;102256.50;;;1.99;100.00
29941;BME280;16801;53.562;10.038;2024-03-08T03:51:31;102260.50;;;1.85;100.00
29941;BME280;16801;53.562;10.038;2024-03-08T03:54:51;102261.31;;;1.87;100.00
29941;BME280;16801;53.562;10.038;2024-03-08T03:58:12;102255.75;;;1.94;100.00
29941;BME280;16801;53.562;10.038;2024-03-08T04:01:35;102261.31;;;1.87;100.00
29941;BME280;16801;53.562;10.038;2024-03-08T04:04:56;102266.94;;;1.76;100.00
29941;BME280;16801;53.562;10.038;2024-03-08T04:08:18;102263.28;;;1.80;100.00
29941;BME280;16801;53.562;10.038;2024-03-08T04:11:39;102261.69;;;1.75;100.00
29941;BME280;16801;53.562;10.038;2024-03-08T04:15:00;102265.19;;;1.77;100.00
29941;BME280;16801;53.562;10.038;2024-03-08T04:18:23;102257.88;;;1.83;100.00
29941;BME280;16801;53.562;10.038;2024-03-08T04:21:44;102264.22;;;1.79;100.00
29941;BME280;16801;53.562;10.038;2024-03-08T04:25:06;102258.09;;;1.76;100.00
29941;BME280;16801;53.562;10.038;2024-03-08T04:28:29;102251.88;;;1.77;100.00
29941;BME280;16801;53.562;10.038;2024-03-08T04:31:51;102251.19;;;1.70;100.00
29941;BME280;16801;53.562;10.038;2024-03-08T04:35:15;102242.41;;;1.68;100.00
29941;BME280;16801;53.562;10.038;2024-03-08T04:38:36;102242.44;;;1.67;100.00
29941;BME280;16801;53.562;10.038;2024-03-08T04:42:01;102244.38;;;1.61;100.00
29941;BME280;16801;53.562;10.038;2024-03-08T04:45:23;102240.81;;;1.61;100.00
29941;BME280;16801;53.562;10.038;2024-03-08T04:48:45;102233.97;;;1.54;100.00
29941;BME280;16801;53.562;10.038;2024-03-08T04:52:09;102232.41;;;1.47;100.00
29941;BME280;16801;53.562;10.038;2024-03-08T04:55:30;102229.00;;;1.42;100.00
29941;BME280;16801;53.562;10.038;2024-03-08T04:58:51;102230.72;;;1.44;100.00
29941;BME280;16801;53.562;10.038;2024-03-08T05:02:13;102226.97;;;1.51;100.00
29941;BME280;16801;53.562;10.038;2024-03-08T05:05:33;102229.34;;;1.60;100.00
29941;BME280;16801;53.562;10.038;2024-03-08T05:08:56;102227.03;;;1.50;100.00
29941;BME280;16801;53.562;10.038;2024-03-08T05:12:17;102228.88;;;1.46;100.00
29941;BME280;16801;53.562;10.038;2024-03-08T05:15:38;102217.47;;;1.43;100.00
29941;BME280;16801;53.562;10.038;2024-03-08T05:18:59;102218.94;;;1.53;100.00
29941;BME280;16801;53.562;10.038;2024-03-08T05:22:20;102217.22;;;1.52;100.00
29941;BME280;16801;53.562;10.038;2024-03-08T05:25:42;102224.25;;;1.53;100.00
29941;BME280;16801;53.562;10.038;2024-03-08T05:29:03;102221.00;;;1.43;100.00
29941;BME280;16801;53.562;10.038;2024-03-08T05:32:24;102225.41;;;1.44;100.00
29941;BME280;16801;53.562;10.038;2024-03-08T05:35:46;102216.72;;;1.39;100.00
29941;BME280;16801;53.562;10.038;2024-03-08T05:39:06;102215.69;;;1.43;100.00
29941;BME280;16801;53.562;10.038;2024-03-08T05:42:29;102217.53;;;1.41;100.00
29941;BME280;16801;53.562;10.038;2024-03-08T05:45:49;102209.63;;;1.38;100.00
29941;BME280;16801;53.562;10.038;2024-03-08T05:49:10;102209.50;;;1.43;100.00
29941;BME280;16801;53.562;10.038;2024-03-08T05:52:32;102208.59;;;1.44;100.00
29941;BME280;16801;53.562;10.038;2024-03-08T05:55:53;102205.66;;;1.24;100.00
29941;BME280;16801;53.562;10.038;2024-03-08T05:59:15;102204.31;;;1.38;100.00
29941;BME280;16801;53.562;10.038;2024-03-08T06:02:37;102206.97;;;1.38;100.00
29941;BME280;16801;53.562;10.038;2024-03-08T06:06:00;102216.53;;;1.45;100.00
29941;BME280;16801;53.562;10.038;2024-03-08T06:09:22;102211.09;;;1.48;100.00
29941;BME280;16801;53.562;10.038;2024-03-08T06:12:44;102218.53;;;1.67;100.00
29941;BME280;16801;53.562;10.038;2024-03-08T06:16:06;102216.69;;;1.69;100.00
29941;BME280;16801;53.562;10.038;2024-03-08T06:19:27;102221.00;;;1.73;100.00
29941;BME280;16801;53.562;10.038;2024-03-08T06:22:48;102228.03;;;2.55;100.00
29941;BME280;16801;53.562;10.038;2024-03-08T06:26:11;102214.34;;;2.13;100.00
29941;BME280;16801;53.562;10.038;2024-03-08T06:29:32;102217.69;;;1.94;100.00
29941;BME280;16801;53.562;10.038;2024-03-08T06:32:54;102217.53;;;1.71;100.00
29941;BME280;16801;53.562;10.038;2024-03-08T06:36:16;102212.72;;;1.82;100.00
29941;BME280;16801;53.562;10.038;2024-03-08T06:39:41;102210.53;;;1.96;100.00
29941;BME280;16801;53.562;10.038;2024-03-08T06:43:02;102206.31;;;1.89;100.00
29941;BME280;16801;53.562;10.038;2024-03-08T06:46:25;102207.47;;;1.80;100.00
29941;BME280;16801;53.562;10.038;2024-03-08T06:49:47;102212.59;;;1.86;100.00
29941;BME280;16801;53.562;10.038;2024-03-08T06:53:09;102208.00;;;1.91;100.00
29941;BME280;16801;53.562;10.038;2024-03-08T06:56:29;102202.16;;;2.08;100.00
29941;BME280;16801;53.562;10.038;2024-03-08T06:59:50;102200.38;;;2.08;100.00
29941;BME280;16801;53.562;10.038;2024-03-08T07:03:12;102199.53;;;2.06;100.00
29941;BME280;16801;53.562;10.038;2024-03-08T07:06:38;102203.97;;;2.06;100.00
29941;BME280;16801;53.562;10.038;2024-03-08T07:10:00;102200.19;;;2.13;100.00
29941;BME280;16801;53.562;10.038;2024-03-08T07:13:21;102200.41;;;2.33;100.00
29941;BME280;16801;53.562;10.038;2024-03-08T07:16:42;102200.81;;;2.47;100.00
29941;BME280;16801;53.562;10.038;2024-03-08T07:20:05;102198.41;;;2.39;100.00
29941;BME280;16801;53.562;10.038;2024-03-08T07:23:32;102192.59;;;2.53;100.00
29941;BME280;16801;53.562;10.038;2024-03-08T07:27:22;102190.81;;;2.54;100.00
29941;BME280;16801;53.562;10.038;2024-03-08T07:30:43;102188.44;;;2.46;100.00
29941;BME280;16801;53.562;10.038;2024-03-08T07:34:19;102186.22;;;2.59;100.00
29941;BME280;16801;53.562;10.038;2024-03-08T07:37:41;102190.19;;;2.72;100.00
29941;BME280;16801;53.562;10.038;2024-03-08T07:41:04;102190.94;;;3.00;100.00
29941;BME280;16801;53.562;10.038;2024-03-08T07:44:24;102195.38;;;2.99;100.00
29941;BME280;16801;53.562;10.038;2024-03-08T07:47:45;102182.72;;;3.06;100.00
29941;BME280;16801;53.562;10.038;2024-03-08T07:51:06;102185.22;;;3.34;100.00
29941;BME280;16801;53.562;10.038;2024-03-08T07:54:28;102181.69;;;3.10;100.00
29941;BME280;16801;53.562;10.038;2024-03-08T07:57:52;102189.44;;;3.16;100.00
29941;BME280;16801;53.562;10.038;2024-03-08T08:01:16;102181.38;;;3.41;100.00
29941;BME280;16801;53.562;10.038;2024-03-08T08:04:37;102187.22;;;3.73;100.00
29941;BME280;16801;53.562;10.038;2024-03-08T08:07:58;102176.25;;;3.81;100.00
29941;BME280;16801;53.562;10.038;2024-03-08T08:11:19;102179.28;;;4.15;100.00
29941;BME280;16801;53.562;10.038;2024-03-08T08:14:41;102174.69;;;4.19;100.00
29941;BME280;16801;53.562;10.038;2024-03-08T08:18:03;102176.53;;;3.95;100.00
29941;BME280;16801;53.562;10.038;2024-03-08T08:21:25;102173.44;;;4.05;100.00
29941;BME280;16801;53.562;10.038;2024-03-08T08:24:46;102178.69;;;4.07;100.00
29941;BME280;16801;53.562;10.038;2024-03-08T08:28:07;102173.09;;;4.35;100.00
29941;BME280;16801;53.562;10.038;2024-03-08T08:31:29;102162.19;;;4.61;100.00
29941;BME280;16801;53.562;10.038;2024-03-08T08:34:50;102160.03;;;4.69;100.00
29941;BME280;16801;53.562;10.038;2024-03-08T08:38:11;102164.50;;;4.48;100.00
29941;BME280;16801;53.562;10.038;2024-03-08T08:41:32;102164.09;;;4.57;100.00
29941;BME280;16801;53.562;10.038;2024-03-08T08:44:53;102160.69;;;4.74;100.00
29941;BME280;16801;53.562;10.038;2024-03-08T08:48:15;102156.78;;;5.01;100.00
29941;BME280;16801;53.562;10.038;2024-03-08T08:51:36;102153.41;;;5.16;100.00
29941;BME280;16801;53.562;10.038;2024-03-08T08:55:00;102146.78;;;5.43;100.00
29941;BME280;16801;53.562;10.038;2024-03-08T08:58:23;102144.31;;;5.39;100.00
29941;BME280;16801;53.562;10.038;2024-03-08T09:01:44;102145.41;;;5.35;100.00
29941;BME280;16801;53.562;10.038;2024-03-08T09:05:09;102142.41;;;5.78;100.00
29941;BME280;16801;53.562;10.038;2024-03-08T09:08:30;102135.25;;;5.97;100.00
29941;BME280;16801;53.562;10.038;2024-03-08T09:11:51;102129.59;;;6.03;100.00
29941;BME280;16801;53.562;10.038;2024-03-08T09:15:13;102131.75;;;6.48;100.00
29941;BME280;16801;53.562;10.038;2024-03-08T09:18:37;102122.06;;;6.63;100.00
29941;BME280;16801;53.562;10.038;2024-03-08T09:21:59;102118.91;;;7.04;100.00
29941;BME280;16801;53.562;10.038;2024-03-08T09:25:20;102110.84;;;6.72;100.00
29941;BME280;16801;53.562;10.038;2024-03-08T09:28:42;102102.84;;;6.87;100.00
29941;BME280;16801;53.562;10.038;2024-03-08T09:32:03;102094.03;;;6.85;100.00
29941;BME280;16801;53.562;10.038;2024-03-08T09:35:24;102090.69;;;6.97;100.00
29941;BME280;16801;53.562;10.038;2024-03-08T09:38:46;102094.34;;;7.12;100.00
29941;BME280;16801;53.562;10.038;2024-03-08T09:42:09;102081.66;;;7.47;100.00
29941;BME280;16801;53.562;10.038;2024-03-08T09:45:31;102084.19;;;7.34;100.00
29941;BME280;16801;53.562;10.038;2024-03-08T09:49:00;102070.28;;;7.88;100.00
29941;BME280;16801;53.562;10.038;2024-03-08T09:52:21;102059.34;;;8.21;100.00
29941;BME280;16801;53.562;10.038;2024-03-08T09:55:43;102063.78;;;7.92;100.00
29941;BME280;16801;53.562;10.038;2024-03-08T09:59:04;102047.72;;;8.06;100.00
29941;BME280;16801;53.562;10.038;2024-03-08T10:02:50;102054.41;;;8.14;100.00
29941;BME280;16801;53.562;10.038;2024-03-08T10:06:11;102045.00;;;7.77;100.00
29941;BME280;16801;53.562;10.038;2024-03-08T10:09:32;102039.00;;;8.89;100.00
29941;BME280;16801;53.562;10.038;2024-03-08T10:12:55;102023.03;;;9.55;100.00
29941;BME280;16801;53.562;10.038;2024-03-08T10:16:16;102021.63;;;11.27;100.00
29941;BME280;16801;53.562;10.038;2024-03-08T10:19:38;102024.47;;;13.32;100.00
29941;BME280;16801;53.562;10.038;2024-03-08T10:22:59;102015.84;;;17.23;89.63
29941;BME280;16801;53.562;10.038;2024-03-08T10:26:20;102008.03;;;19.12;68.40
29941;BME280;16801;53.562;10.038;2024-03-08T10:29:42;102005.31;;;20.91;49.90
29941;BME280;16801;53.562;10.038;2024-03-08T10:33:05;102001.50;;;20.21;40.72
29941;BME280;16801;53.562;10.038;2024-03-08T10:36:28;102001.31;;;20.31;38.11
29941;BME280;16801;53.562;10.038;2024-03-08T10:39:56;101984.59;;;20.89;37.20
29941;BME280;16801;53.562;10.038;2024-03-08T10:43:32;101974.41;;;21.83;35.45
29941;BME280;16801;53.562;10.038;2024-03-08T10:47:02;101976.63;;;22.24;32.83
29941;BME280;16801;53.562;10.038;2024-03-08T10:50:25;101970.16;;;21.03;33.86
29941;BME280;16801;53.562;10.038;2024-03-08T10:53:47;101971.31;;;19.65;34.07
29941;BME280;16801;53.562;10.038;2024-03-08T10:57:12;101961.88;;;20.64;32.72
29941;BME280;16801;53.562;10.038;2024-03-08T11:00:34;101955.91;;;20.44;34.36
29941;BME280;16801;53.562;10.038;2024-03-08T11:03:57;101948.22;;;22.32;31.02
29941;BME280;16801;53.562;10.038;2024-03-08T11:07:19;101953.09;;;23.18;29.82
29941;BME280;16801;53.562;10.038;2024-03-08T11:10:46;101942.03;;;24.25;29.26
29941;BME280;16801;53.562;10.038;2024-03-08T11:14:43;101940.34;;;23.81;29.08
29941;BME280;16801;53.562;10.038;2024-03-08T11:18:06;101933.44;;;21.73;30.40
29941;BME280;16801;53.562;10.038;2024-03-08T11:21:31;101924.50;;;22.16;30.02
29941;BME280;16801;53.562;10.038;2024-03-08T11:24:53;101913.38;;;23.56;29.28
29941;BME280;16801;53.562;10.038;2024-03-08T11:28:16;101918.53;;;20.76;29.81
29941;BME280;16801;53.562;10.038;2024-03-08T11:31:39;101936.88;;;17.58;32.81
29941;BME280;16801;53.562;10.038;2024-03-08T11:34:59;101916.53;;;18.99;33.51
29941;BME280;16801;53.562;10.038;2024-03-08T11:38:26;101907.34;;;18.15;34.43
29941;BME280;16801;53.562;10.038;2024-03-08T11:41:48;101903.53;;;19.51;32.80
29941;BME280;16801;53.562;10.038;2024-03-08T11:45:10;101903.06;;;18.38;33.11
29941;BME280;16801;53.562;10.038;2024-03-08T11:48:31;101897.44;;;19.07;33.45
29941;BME280;16801;53.562;10.038;2024-03-08T11:51:52;101895.09;;;21.34;32.09
29941;BME280;16801;53.562;10.038;2024-03-08T11:55:15;101881.13;;;20.28;31.10
29941;BME280;16801;53.562;10.038;2024-03-08T11:58:39;101877.84;;;20.87;30.96
29941;BME280;16801;53.562;10.038;2024-03-08T12:02:01;101875.19;;;23.32;29.21
29941;BME280;16801;53.562;10.038;2024-03-08T12:05:23;101869.06;;;24.21;28.26
29941;BME280;16801;53.562;10.038;2024-03-08T12:08:45;101863.06;;;25.26;27.02
29941;BME280;16801;53.562;10.038;2024-03-08T12:12:10;101859.00;;;25.22;26.31
29941;BME280;16801;53.562;10.038;2024-03-08T12:15:31;101851.38;;;25.24;26.04
29941;BME280;16801;53.562;10.038;2024-03-08T12:18:53;101849.09;;;24.12;26.55
29941;BME280;16801;53.562;10.038;2024-03-08T12:22:15;101841.72;;;24.19;26.79
29941;BME280;16801;53.562;10.038;2024-03-08T12:25:35;101840.75;;;25.15;26.40
29941;BME280;16801;53.562;10.038;2024-03-08T12:29:14;101831.72;;;24.87;26.35
29941;BME280;16801;53.562;10.038;2024-03-08T12:32:36;101817.09;;;24.86;26.52
29941;BME280;16801;53.562;10.038;2024-03-08T12:35:58;101820.47;;;24.47;26.49
29941;BME280;16801;53.562;10.038;2024-03-08T12:39:20;101808.44;;;24.61;25.86
29941;BME280;16801;53.562;10.038;2024-03-08T12:42:46;101804.66;;;24.69;26.30
29941;BME280;16801;53.562;10.038;2024-03-08T12:46:08;101803.41;;;23.12;27.55
29941;BME280;16801;53.562;10.038;2024-03-08T12:49:29;101789.81;;;23.74;27.07
29941;BME280;16801;53.562;10.038;2024-03-08T12:52:51;101780.69;;;22.68;27.88
29941;BME280;16801;53.562;10.038;2024-03-08T12:56:12;101776.03;;;22.68;27.91
29941;BME280;16801;53.562;10.038;2024-03-08T12:59:34;101775.97;;;22.33;27.81
29941;BME280;16801;53.562;10.038;2024-03-08T13:02:56;101771.50;;;22.96;28.15
29941;BME280;16801;53.562;10.038;2024-03-08T13:06:20;101760.94;;;23.36;28.47
29941;BME280;16801;53.562;10.038;2024-03-08T13:09:46;101770.34;;;22.41;28.73
29941;BME280;16801;53.562;10.038;2024-03-08T13:13:07;101749.16;;;21.54;29.48
29941;BME280;16801;53.562;10.038;2024-03-08T13:16:29;101749.34;;;23.40;27.89
29941;BME280;16801;53.562;10.038;2024-03-08T13:19:51;101740.69;;;22.65;28.31
29941;BME280;16801;53.562;10.038;2024-03-08T13:23:17;101731.09;;;22.47;28.75
29941;BME280;16801;53.562;10.038;2024-03-08T13:26:38;101725.09;;;22.07;29.21
29941;BME280;16801;53.562;10.038;2024-03-08T13:29:59;101729.38;;;20.06;30.54
29941;BME280;16801;53.562;10.038;2024-03-08T13:33:20;101730.75;;;17.30;32.87
29941;BME280;16801;53.562;10.038;2024-03-08T13:36:42;101720.53;;;18.09;31.92
29941;BME280;16801;53.562;10.038;2024-03-08T13:40:06;101705.75;;;19.26;31.40
29941;BME280;16801;53.562;10.038;2024-03-08T13:43:30;101704.16;;;20.27;30.17
29941;BME280;16801;53.562;10.038;2024-03-08T13:46:53;101699.59;;;20.95;29.51
29941;BME280;16801;53.562;10.038;2024-03-08T13:50:17;101687.16;;;21.96;28.73
29941;BME280;16801;53.562;10.038;2024-03-08T13:53:42;101681.66;;;21.30;28.66
29941;BME280;16801;53.562;10.038;2024-03-08T13:57:03;101678.50;;;20.96;28.84
29941;BME280;16801;53.562;10.038;2024-03-08T14:00:24;101668.69;;;19.40;30.50
29941;BME280;16801;53.562;10.038;2024-03-08T14:03:47;101646.66;;;21.61;28.84
29941;BME280;16801;53.562;10.038;2024-03-08T14:07:08;101659.41;;;20.65;28.96
29941;BME280;16801;53.562;10.038;2024-03-08T14:10:32;101647.53;;;18.77;29.62
29941;BME280;16801;53.562;10.038;2024-03-08T14:13:53;101648.19;;;19.36;29.57
29941;BME280;16801;53.562;10.038;2024-03-08T14:17:13;101641.00;;;18.62;29.73
29941;BME280;16801;53.562;10.038;2024-03-08T14:20:36;101633.13;;;19.86;30.20
29941;BME280;16801;53.562;10.038;2024-03-08T14:23:57;101626.59;;;20.26;29.24
29941;BME280;16801;53.562;10.038;2024-03-08T14:27:20;101617.69;;;19.93;29.64
29941;BME280;16801;53.562;10.038;2024-03-08T14:30:42;101615.22;;;20.83;29.02
29941;BME280;16801;53.562;10.038;2024-03-08T14:34:03;101605.34;;;20.73;28.90
29941;BME280;16801;53.562;10.038;2024-03-08T14:37:24;101609.72;;;20.45;29.31
29941;BME280;16801;53.562;10.038;2024-03-08T14:40:48;101612.44;;;19.84;30.18
29941;BME280;16801;53.562;10.038;2024-03-08T14:44:11;101605.97;;;20.08;29.84
29941;BME280;16801;53.562;10.038;2024-03-08T14:47:32;101604.00;;;19.55;30.11
29941;BME280;16801;53.562;10.038;2024-03-08T14:50:53;101598.25;;;19.26;30.34
29941;BME280;16801;53.562;10.038;2024-03-08T14:54:14;101597.31;;;18.70;31.23
29941;BME280;16801;53.562;10.038;2024-03-08T14:58:00;101598.28;;;17.12;32.17
29941;BME280;16801;53.562;10.038;2024-03-08T15:01:24;101591.78;;;17.64;32.68
29941;BME280;16801;53.562;10.038;2024-03-08T15:04:49;101577.50;;;17.78;32.41
29941;BME280;16801;53.562;10.038;2024-03-08T15:08:16;101581.28;;;17.43;32.36
29941;BME280;16801;53.562;10.038;2024-03-08T15:11:41;101572.19;;;16.58;33.92
29941;BME280;16801;53.562;10.038;2024-03-08T15:15:07;101575.00;;;16.31;33.84
29941;BME280;16801;53.562;10.038;2024-03-08T15:18:32;101562.31;;;16.57;34.34
29941;BME280;16801;53.562;10.038;2024-03-08T15:21:54;101583.28;;;15.67;34.67
29941;BME280;16801;53.562;10.038;2024-03-08T15:25:16;101576.78;;;15.77;35.56
29941;BME280;16801;53.562;10.038;2024-03-08T15:28:43;101572.34;;;15.22;35.78
29941;BME280;16801;53.562;10.038;2024-03-08T15:32:10;101564.34;;;14.65;36.75
29941;BME280;16801;53.562;10.038;2024-03-08T15:35:44;101563.09;;;14.40;37.97
29941;BME280;16801;53.562;10.038;2024-03-08T15:39:18;101552.38;;;14.58;37.92
29941;BME280;16801;53.562;10.038;2024-03-08T15:42:44;101565.41;;;13.57;39.73
29941;BME280;16801;53.562;10.038;2024-03-08T15:46:14;101565.28;;;12.98;41.17
29941;BME280;16801;53.562;10.038;2024-03-08T15:49:35;101552.13;;;12.94;41.47
29941;BME280;16801;53.562;10.038;2024-03-08T15:52:57;101552.56;;;12.48;41.97
29941;BME280;16801;53.562;10.038;2024-03-08T15:56:19;101543.00;;;12.23;43.54
29941;BME280;16801;53.562;10.038;2024-03-08T15:59:40;101540.63;;;12.09;45.04
29941;BME280;16801;53.562;10.038;2024-03-08T16:03:02;101537.41;;;11.83;47.20
29941;BME280;16801;53.562;10.038;2024-03-08T16:06:26;101543.72;;;11.62;49.42
29941;BME280;16801;53.562;10.038;2024-03-08T16:09:50;101531.34;;;11.37;51.39
29941;BME280;16801;53.562;10.038;2024-03-08T16:13:12;101527.25;;;11.54;52.62
29941;BME280;16801;53.562;10.038;2024-03-08T16:16:33;101523.06;;;11.61;52.87
29941;BME280;16801;53.562;10.038;2024-03-08T16:19:54;101524.22;;;11.47;54.57
29941;BME280;16801;53.562;10.038;2024-03-08T16:23:16;101518.84;;;11.36;56.33
29941;BME280;16801;53.562;10.038;2024-03-08T16:26:38;101515.81;;;11.07;58.52
29941;BME280;16801;53.562;10.038;2024-03-08T16:30:01;101516.41;;;11.00;57.85
29941;BME280;16801;53.562;10.038;2024-03-08T16:33:23;101513.47;;;10.81;58.36
29941;BME280;16801;53.562;10.038;2024-03-08T16:36:44;101513.25;;;10.84;59.38
29941;BME280;16801;53.562;10.038;2024-03-08T16:40:05;101511.38;;;10.51;61.06
29941;BME280;16801;53.562;10.038;2024-03-08T16:43:28;101512.72;;;10.57;61.96
29941;BME280;16801;53.562;10.038;2024-03-08T16:46:49;101502.59;;;10.82;80.39
29941;BME280;16801;53.562;10.038;2024-03-08T16:50:10;101500.69;;;11.81;100.00
29941;BME280;16801;53.562;10.038;2024-03-08T16:53:34;101490.34;;;12.18;89.94
29941;BME280;16801;53.562;10.038;2024-03-08T16:56:58;101494.75;;;11.55;82.97
29941;BME280;16801;53.562;10.038;2024-03-08T17:00:22;101492.88;;;11.98;89.24
29941;BME280;16801;53.562;10.038;2024-03-08T17:03:47;101495.66;;;11.22;79.03
29941;BME280;16801;53.562;10.038;2024-03-08T17:07:08;101497.28;;;10.81;77.96
29941;BME280;16801;53.562;10.038;2024-03-08T17:10:32;101492.38;;;10.53;78.10
29941;BME280;16801;53.562;10.038;2024-03-08T17:13:53;101492.81;;;10.24;79.91
29941;BME280;16801;53.562;10.038;2024-03-08T17:17:15;101486.06;;;10.19;81.27
29941;BME280;16801;53.562;10.038;2024-03-08T17:20:38;101495.84;;;9.85;82.51
29941;BME280;16801;53.562;10.038;2024-03-08T17:24:00;101492.56;;;9.93;83.14
29941;BME280;16801;53.562;10.038;2024-03-08T17:27:23;101496.00;;;9.95;83.54